Time;durP1;ratioP1;P1;durP2;ratioP2;P2;SDS_P1;SDS_P2;PMS_P1;PMS_P2;Temp;Humidity;BMP_temperature;BMP_pressure;BME280_temperature;BME280_humidity;BME280_pressure;Samples;Min_cycle;Max_cycle;Signal;HPM_P1;HPM_P2
2022/07/07 00:02:15;;;;;;;0.63;0.63;;;14.30;99.90;;;;;;7371491;19;20318;-72
2022/07/07 00:04:40;;;;;;;0.80;0.80;;;14.30;99.90;;;;;;7378154;19;20341;-71
2022/07/07 00:07:06;;;;;;;0.95;0.90;;;14.40;99.90;;;;;;7376682;19;20352;-72
2022/07/07 00:09:31;;;;;;;0.80;0.80;;;14.30;99.90;;;;;;7381593;19;20891;-74
2022/07/07 00:11:58;;;;;;;0.80;0.80;;;14.20;99.90;;;;;;7379351;19;20347;-71
2022/07/07 00:14:23;;;;;;;0.70;0.70;;;14.20;99.90;;;;;;7379873;19;20349;-74
2022/07/07 00:16:49;;;;;;;0.88;0.88;;;14.20;99.90;;;;;;7375437;19;20751;-74
2022/07/07 00:19:15;;;;;;;0.70;0.70;;;14.20;99.90;;;;;;7382087;19;20325;-72
2022/07/07 00:21:40;;;;;;;0.80;0.80;;;14.20;99.90;;;;;;7381140;19;20365;-73
2022/07/07 00:24:06;;;;;;;0.80;0.80;;;14.20;99.90;;;;;;7381376;19;20352;-71
2022/07/07 00:26:32;;;;;;;0.88;0.80;;;14.10;99.90;;;;;;7373630;19;20344;-71
2022/07/07 00:28:57;;;;;;;1.40;0.90;;;14.10;99.90;;;;;;7379132;19;20349;-71
2022/07/07 00:31:23;;;;;;;0.80;0.80;;;14.10;99.90;;;;;;7377106;19;20413;-73
2022/07/07 00:33:49;;;;;;;0.90;0.90;;;14.10;99.90;;;;;;7379512;19;20340;-77
2022/07/07 00:36:14;;;;;;;0.90;0.90;;;14.10;99.90;;;;;;7373878;19;20324;-74
2022/07/07 00:38:40;;;;;;;0.83;0.83;;;14.20;99.90;;;;;;7382435;19;20371;-71
2022/07/07 00:41:06;;;;;;;0.85;0.85;;;14.10;99.90;;;;;;7377869;19;20348;-71
2022/07/07 00:43:35;;;;;;;2.20;0.90;;;14.10;99.90;;;;;;7377458;19;20384;-74
2022/07/07 00:46:01;;;;;;;0.80;0.80;;;14.10;99.90;;;;;;7375615;19;20344;-72
2022/07/07 00:48:27;;;;;;;0.93;0.85;;;14.20;99.90;;;;;;7380006;19;21212;-71
2022/07/07 00:50:52;;;;;;;0.80;0.70;;;14.10;99.90;;;;;;7381812;19;20380;-75
2022/07/07 00:53:18;;;;;;;1.20;0.80;;;14.10;99.90;;;;;;7379677;19;20855;-71
2022/07/07 00:55:43;;;;;;;3.57;1.10;;;14.10;99.90;;;;;;7374425;19;20341;-73
2022/07/07 00:58:09;;;;;;;0.80;0.80;;;14.00;99.90;;;;;;7379281;19;20348;-72
2022/07/07 01:00:35;;;;;;;0.80;0.80;;;14.10;99.90;;;;;;7377419;19;20394;-72
2022/07/07 01:03:00;;;;;;;1.33;0.83;;;14.00;99.90;;;;;;7376616;19;20356;-72
2022/07/07 01:05:26;;;;;;;1.20;0.80;;;14.10;99.90;;;;;;7373596;19;20340;-70
2022/07/07 01:07:52;;;;;;;1.00;1.00;;;14.10;99.90;;;;;;7380504;19;20340;-72
2022/07/07 01:10:17;;;;;;;0.93;0.85;;;14.10;99.90;;;;;;7377632;19;21319;-77
2022/07/07 01:12:43;;;;;;;1.60;0.90;;;14.10;99.90;;;;;;7380060;19;20666;-72
2022/07/07 01:15:10;;;;;;;0.88;0.88;;;14.10;99.90;;;;;;7372388;19;20333;-74
2022/07/07 01:17:36;;;;;;;0.82;0.70;;;14.20;99.90;;;;;;7378826;19;20369;-74
2022/07/07 01:20:02;;;;;;;0.80;0.80;;;14.20;99.90;;;;;;7380137;19;20349;-71
2022/07/07 01:22:31;;;;;;;0.90;0.90;;;14.20;99.90;;;;;;7379628;19;20348;-74
2022/07/07 01:24:57;;;;;;;0.90;0.90;;;14.20;99.90;;;;;;7376499;19;20341;-71
2022/07/07 01:27:23;;;;;;;1.02;0.93;;;14.30;99.90;;;;;;7378275;19;21242;-75
2022/07/07 01:29:50;;;;;;;1.20;0.90;;;14.30;99.90;;;;;;7380479;19;20384;-72
2022/07/07 01:32:16;;;;;;;0.80;0.80;;;14.30;99.90;;;;;;7378322;19;20368;-71
2022/07/07 01:34:42;;;;;;;2.55;1.00;;;14.30;99.90;;;;;;7378644;19;20356;-73
2022/07/07 01:37:08;;;;;;;0.87;0.83;;;14.40;99.90;;;;;;7373434;19;20352;-73
2022/07/07 01:39:34;;;;;;;1.13;0.90;;;14.50;99.90;;;;;;7379549;19;20313;-73
2022/07/07 01:41:59;;;;;;;1.00;1.00;;;14.50;99.90;;;;;;7376865;19;20674;-72
2022/07/07 01:44:25;;;;;;;2.30;1.00;;;14.50;99.90;;;;;;7377884;19;20394;-73
2022/07/07 01:46:50;;;;;;;1.20;1.10;;;14.50;99.90;;;;;;7374567;19;20872;-72
2022/07/07 01:49:16;;;;;;;1.10;1.00;;;14.50;99.90;;;;;;7380312;19;20323;-72
2022/07/07 01:51:42;;;;;;;1.80;0.80;;;14.60;99.90;;;;;;7377909;19;20325;-74
2022/07/07 01:54:07;;;;;;;0.93;0.93;;;14.60;99.90;;;;;;7379121;19;20320;-71
2022/07/07 01:56:34;;;;;;;0.70;0.70;;;14.60;99.90;;;;;;7371157;19;20452;-70
2022/07/07 01:58:59;;;;;;;2.15;1.08;;;14.60;99.90;;;;;;7379672;19;20580;-71
2022/07/07 02:01:25;;;;;;;0.87;0.87;;;14.60;99.90;;;;;;7376397;19;20866;-72
2022/07/07 02:03:50;;;;;;;0.70;0.70;;;14.60;99.90;;;;;;7379597;19;21165;-71
2022/07/07 02:06:16;;;;;;;1.38;0.90;;;14.70;99.90;;;;;;7366713;19;20308;-72
2022/07/07 02:08:41;;;;;;;1.10;1.00;;;14.60;99.90;;;;;;7379572;19;20713;-72
2022/07/07 02:11:13;;;;;;;1.50;0.90;;;14.60;99.90;;;;;;7377200;19;20352;-72
2022/07/07 02:13:49;;;;;;;0.85;0.85;;;14.70;99.90;;;;;;7379747;19;20341;-70
2022/07/07 02:16:16;;;;;;;3.93;0.90;;;14.70;99.90;;;;;;7371755;19;20340;-73
2022/07/07 02:18:42;;;;;;;0.65;0.65;;;14.70;99.90;;;;;;7377043;19;20860;-74
2022/07/07 02:21:08;;;;;;;1.00;0.90;;;14.70;99.90;;;;;;7378015;19;20860;-72
2022/07/07 02:23:34;;;;;;;1.00;0.90;;;14.70;99.90;;;;;;7375994;19;21484;-75
2022/07/07 02:26:00;;;;;;;0.90;0.90;;;14.70;99.90;;;;;;7373148;19;20357;-72
2022/07/07 02:28:26;;;;;;;1.70;0.93;;;14.70;99.90;;;;;;7377149;19;20673;-72
2022/07/07 02:30:53;;;;;;;1.15;0.90;;;14.80;99.90;;;;;;7376334;19;20759;-70
2022/07/07 02:33:19;;;;;;;2.22;1.02;;;14.70;99.90;;;;;;7377678;19;20316;-72
2022/07/07 02:35:44;;;;;;;0.90;0.90;;;14.80;99.90;;;;;;7372883;19;20902;-74
2022/07/07 02:38:10;;;;;;;2.20;1.10;;;14.80;99.90;;;;;;7376061;19;20344;-71
2022/07/07 02:40:35;;;;;;;0.83;0.83;;;14.80;99.90;;;;;;7377936;19;20353;-74
2022/07/07 02:43:01;;;;;;;2.33;0.90;;;14.90;99.90;;;;;;7377549;19;20344;-71
2022/07/07 02:45:26;;;;;;;1.20;0.77;;;14.90;99.90;;;;;;7371071;19;20783;-73
2022/07/07 02:47:52;;;;;;;1.10;0.90;;;14.90;99.90;;;;;;7377968;19;20332;-72
2022/07/07 02:50:18;;;;;;;0.82;0.82;;;14.90;99.90;;;;;;7375665;19;20301;-71
2022/07/07 02:52:43;;;;;;;1.00;0.90;;;14.90;99.90;;;;;;7378199;19;20317;-71
2022/07/07 02:55:09;;;;;;;0.80;0.80;;;14.90;99.90;;;;;;7372245;19;20352;-73
2022/07/07 02:57:35;;;;;;;1.10;1.00;;;14.90;99.90;;;;;;7377143;19;20796;-70
2022/07/07 03:00:00;;;;;;;1.30;0.90;;;14.90;99.90;;;;;;7377883;19;20337;-72
2022/07/07 03:02:26;;;;;;;0.93;0.90;;;14.90;99.90;;;;;;7376444;19;20329;-70
2022/07/07 03:04:52;;;;;;;0.90;0.90;;;14.90;99.90;;;;;;7373886;19;20428;-73
2022/07/07 03:07:19;;;;;;;0.90;0.82;;;14.80;99.90;;;;;;7375092;19;20320;-71
2022/07/07 03:09:45;;;;;;;0.93;0.82;;;14.80;99.90;;;;;;7375658;19;20863;-71
2022/07/07 03:12:11;;;;;;;1.15;0.80;;;14.80;99.90;;;;;;7375489;19;20345;-71
2022/07/07 03:14:37;;;;;;;0.90;0.90;;;14.80;99.90;;;;;;7376359;19;20357;-74
2022/07/07 03:17:02;;;;;;;0.90;0.90;;;14.80;99.90;;;;;;7370486;19;20337;-74
2022/07/07 03:19:28;;;;;;;1.07;0.97;;;14.70;99.90;;;;;;7376054;19;20358;-73
2022/07/07 03:21:53;;;;;;;1.23;1.00;;;14.70;99.90;;;;;;7375816;19;20936;-71
2022/07/07 03:24:19;;;;;;;2.10;1.10;;;14.70;99.90;;;;;;7376317;19;20342;-72
2022/07/07 03:26:45;;;;;;;0.80;0.80;;;14.70;99.90;;;;;;7370242;19;20762;-72
2022/07/07 03:29:10;;;;;;;1.10;1.00;;;14.60;99.90;;;;;;7375984;19;20345;-72
2022/07/07 03:31:36;;;;;;;1.10;1.00;;;14.40;99.90;;;;;;7373463;19;20329;-72
2022/07/07 03:34:01;;;;;;;1.33;0.97;;;14.40;99.90;;;;;;7374344;19;20341;-72
2022/07/07 03:36:27;;;;;;;1.02;0.98;;;14.40;99.90;;;;;;7366793;19;20333;-70
2022/07/07 03:38:52;;;;;;;1.00;0.90;;;14.40;99.90;;;;;;7377015;19;20337;-71
2022/07/07 03:41:18;;;;;;;1.40;1.07;;;14.30;99.90;;;;;;7383415;19;20329;-71
2022/07/07 03:43:43;;;;;;;1.45;1.00;;;14.30;99.90;;;;;;7384070;19;21100;-73
2022/07/07 03:46:09;;;;;;;1.67;1.00;;;14.20;99.90;;;;;;7357164;19;20328;-72
2022/07/07 03:48:35;;;;;;;0.90;0.90;;;14.20;99.90;;;;;;7381400;19;20373;-74
2022/07/07 03:51:00;;;;;;;1.67;0.90;;;14.20;99.90;;;;;;7383430;19;20365;-71
2022/07/07 03:53:26;;;;;;;1.00;0.90;;;14.20;99.90;;;;;;7382721;19;20408;-71
2022/07/07 03:55:52;;;;;;;2.10;1.05;;;14.20;99.90;;;;;;7376322;19;21038;-72
2022/07/07 03:58:17;;;;;;;1.67;1.07;;;14.20;99.90;;;;;;7381837;19;20325;-73
2022/07/07 04:00:43;;;;;;;0.80;0.80;;;14.20;99.90;;;;;;7380478;19;20395;-70
2022/07/07 04:03:09;;;;;;;2.00;1.20;;;14.20;99.90;;;;;;7383570;19;20340;-70
2022/07/07 04:05:35;;;;;;;1.90;0.98;;;14.10;99.90;;;;;;7374886;19;20340;-71
2022/07/07 04:08:01;;;;;;;2.20;1.20;;;14.10;99.90;;;;;;7382708;19;20372;-70
2022/07/07 04:10:26;;;;;;;1.60;1.00;;;14.10;99.90;;;;;;7378453;19;20340;-71
2022/07/07 04:12:53;;;;;;;1.80;1.25;;;14.00;99.90;;;;;;7377783;19;20334;-71
2022/07/07 04:15:19;;;;;;;1.10;1.10;;;14.10;99.90;;;;;;7378381;19;20646;-70
2022/07/07 04:17:45;;;;;;;2.38;1.15;;;14.00;99.90;;;;;;7380235;19;20324;-70
2022/07/07 04:20:11;;;;;;;1.10;1.00;;;14.00;99.90;;;;;;7377422;19;20892;-71
2022/07/07 04:22:37;;;;;;;2.50;1.20;;;14.00;99.90;;;;;;7378021;19;20369;-72
2022/07/07 04:25:02;;;;;;;1.70;1.20;;;14.00;99.90;;;;;;7379518;19;20332;-70
2022/07/07 04:27:28;;;;;;;1.73;1.60;;;14.00;99.90;;;;;;7377159;19;20344;-72
2022/07/07 04:29:54;;;;;;;3.53;3.00;;;14.00;99.90;;;;;;7377343;19;20392;-74
2022/07/07 04:32:19;;;;;;;1.90;1.33;;;14.00;99.90;;;;;;7376605;19;20852;-72
2022/07/07 04:34:45;;;;;;;2.13;1.20;;;13.90;99.90;;;;;;7379015;19;20411;-70
2022/07/07 04:37:10;;;;;;;0.93;0.93;;;13.90;99.90;;;;;;7378206;19;20356;-71
2022/07/07 04:39:36;;;;;;;1.17;1.10;;;14.00;99.90;;;;;;7382164;19;20876;-74
2022/07/07 04:42:02;;;;;;;1.30;1.20;;;14.00;99.90;;;;;;7378265;19;20399;-71
2022/07/07 04:44:27;;;;;;;1.93;1.33;;;14.00;99.90;;;;;;7377212;19;20337;-70
2022/07/07 04:46:53;;;;;;;1.75;1.02;;;14.00;99.90;;;;;;7377743;19;20317;-71
2022/07/07 04:49:18;;;;;;;2.27;1.20;;;14.00;99.90;;;;;;7375023;19;21413;-72
2022/07/07 04:51:44;;;;;;;1.15;1.08;;;14.00;99.90;;;;;;7375743;19;20412;-71
2022/07/07 04:54:09;;;;;;;1.10;1.00;;;13.90;99.90;;;;;;7371568;19;20416;-71
2022/07/07 04:56:35;;;;;;;1.27;1.17;;;13.90;99.90;;;;;;7374298;19;20424;-71
2022/07/07 04:59:00;;;;;;;1.40;1.30;;;13.90;99.90;;;;;;7373270;19;20352;-71
2022/07/07 05:01:26;;;;;;;1.47;1.20;;;13.80;99.90;;;;;;7372651;19;20353;-72
2022/07/07 05:03:52;;;;;;;1.67;1.23;;;13.70;99.90;;;;;;7374189;19;20301;-71
2022/07/07 05:06:17;;;;;;;2.92;1.25;;;13.80;99.90;;;;;;7375993;19;20317;-70
2022/07/07 05:08:43;;;;;;;1.27;1.17;;;13.80;99.90;;;;;;7376682;19;20881;-74
2022/07/07 05:11:08;;;;;;;1.55;1.30;;;13.90;99.90;;;;;;7379189;19;20357;-73
2022/07/07 05:13:34;;;;;;;1.70;1.20;;;13.90;99.90;;;;;;7373102;19;20349;-73
2022/07/07 05:16:00;;;;;;;1.20;1.10;;;13.90;99.90;;;;;;7375656;19;20315;-73
2022/07/07 05:18:25;;;;;;;2.40;1.40;;;13.90;99.90;;;;;;7376477;19;20415;-73
2022/07/07 05:20:51;;;;;;;1.30;1.20;;;13.90;99.90;;;;;;7375110;19;20328;-72
2022/07/07 05:23:17;;;;;;;1.58;1.40;;;13.90;99.90;;;;;;7374861;19;20359;-72
2022/07/07 05:25:42;;;;;;;5.20;1.30;;;14.00;99.90;;;;;;7374124;19;20352;-71
2022/07/07 05:28:08;;;;;;;1.93;1.40;;;14.00;99.90;;;;;;7374374;19;20313;-75
2022/07/07 05:30:33;;;;;;;1.40;1.30;;;13.90;99.90;;;;;;7373255;19;20368;-71
2022/07/07 05:32:59;;;;;;;2.57;1.40;;;14.00;99.90;;;;;;7371158;19;20697;-72
2022/07/07 05:35:24;;;;;;;1.80;1.30;;;14.00;99.90;;;;;;7372404;19;20430;-71
2022/07/07 05:37:50;;;;;;;2.08;1.20;;;13.90;99.90;;;;;;7375183;19;21280;-75
2022/07/07 05:40:15;;;;;;;1.70;1.40;;;13.90;99.90;;;;;;7374741;19;20328;-71
2022/07/07 05:42:41;;;;;;;2.37;1.30;;;14.00;99.90;;;;;;7371060;19;20359;-71
2022/07/07 05:45:07;;;;;;;1.95;1.30;;;13.90;99.90;;;;;;7368245;19;20921;-72
2022/07/07 05:47:33;;;;;;;1.63;1.40;;;13.90;99.90;;;;;;7377942;19;20352;-71
2022/07/07 05:49:59;;;;;;;1.42;1.33;;;14.00;99.90;;;;;;7374300;19;20320;-74
2022/07/07 05:52:26;;;;;;;1.50;1.40;;;14.00;99.90;;;;;;7374500;19;20454;-73
2022/07/07 05:54:51;;;;;;;2.47;1.63;;;14.00;99.90;;;;;;7371584;19;20404;-73
2022/07/07 05:57:17;;;;;;;2.10;1.30;;;14.00;99.90;;;;;;7373280;19;20404;-73
2022/07/07 05:59:42;;;;;;;1.53;1.27;;;14.10;99.90;;;;;;7374691;19;21035;-75
2022/07/07 06:02:08;;;;;;;1.40;1.30;;;14.10;99.90;;;;;;7374898;19;20408;-75
2022/07/07 06:04:33;;;;;;;2.10;1.27;;;14.10;99.90;;;;;;7373008;19;20344;-73
2022/07/07 06:06:59;;;;;;;1.65;1.42;;;14.20;99.90;;;;;;7371195;19;20324;-74
2022/07/07 06:09:24;;;;;;;1.50;1.20;;;14.20;99.90;;;;;;7378736;19;20368;-75
2022/07/07 06:11:50;;;;;;;1.87;1.20;;;14.20;99.90;;;;;;7375656;19;20324;-76
2022/07/07 06:14:16;;;;;;;1.60;1.45;;;14.30;99.90;;;;;;7371380;19;21053;-72
2022/07/07 06:16:42;;;;;;;1.30;1.20;;;14.20;99.90;;;;;;7376702;19;20341;-76
2022/07/07 06:19:11;;;;;;;1.92;1.30;;;14.20;99.90;;;;;;7376128;19;20341;-74
2022/07/07 06:21:37;;;;;;;2.60;1.48;;;14.30;99.90;;;;;;7374368;19;20372;-73
2022/07/07 06:24:03;;;;;;;1.55;1.30;;;14.40;99.90;;;;;;7373161;19;20880;-72
2022/07/07 06:26:29;;;;;;;1.40;1.30;;;14.50;99.90;;;;;;7373817;19;20369;-74
2022/07/07 06:28:54;;;;;;;1.60;1.50;;;14.60;99.90;;;;;;7377162;19;20353;-73
2022/07/07 06:31:20;;;;;;;1.45;1.35;;;14.50;99.90;;;;;;7373779;19;20309;-76
2022/07/07 06:33:46;;;;;;;2.15;1.40;;;14.70;99.90;;;;;;7371942;19;20824;-72
2022/07/07 06:36:12;;;;;;;1.95;1.40;;;14.70;99.90;;;;;;7372532;19;20337;-75
2022/07/07 06:38:37;;;;;;;1.40;1.30;;;14.80;99.90;;;;;;7378049;19;20351;-74
2022/07/07 06:41:03;;;;;;;1.37;1.27;;;14.90;99.90;;;;;;7374601;19;20324;-73
2022/07/07 06:43:28;;;;;;;1.30;1.20;;;15.00;99.90;;;;;;7370266;19;20717;-71
2022/07/07 06:45:54;;;;;;;1.50;1.30;;;15.10;99.90;;;;;;7374862;19;20317;-74
2022/07/07 06:48:20;;;;;;;1.50;1.38;;;15.20;99.90;;;;;;7375402;19;20339;-73
2022/07/07 06:50:45;;;;;;;1.60;1.50;;;15.30;99.90;;;;;;7374045;19;20357;-73
2022/07/07 06:53:11;;;;;;;3.50;1.33;;;15.20;99.90;;;;;;7372358;19;20417;-71
2022/07/07 06:55:36;;;;;;;2.07;1.30;;;15.20;99.90;;;;;;7372504;19;20339;-72
2022/07/07 06:58:02;;;;;;;1.17;1.07;;;15.30;99.90;;;;;;7377357;19;20309;-71
2022/07/07 07:00:28;;;;;;;1.42;1.30;;;15.40;99.90;;;;;;7371180;19;20459;-73
2022/07/07 07:02:54;;;;;;;1.30;1.27;;;15.50;99.90;;;;;;7372558;19;20351;-72
2022/07/07 07:05:20;;;;;;;1.90;1.40;;;15.60;99.90;;;;;;7372186;19;20313;-75
2022/07/07 07:07:45;;;;;;;1.67;1.50;;;15.50;99.90;;;;;;7374925;19;20328;-78
2022/07/07 07:10:11;;;;;;;1.40;1.30;;;15.70;99.90;;;;;;7372997;19;20345;-76
2022/07/07 07:12:36;;;;;;;2.67;1.30;;;15.70;99.90;;;;;;7370803;19;20388;-74
2022/07/07 07:15:02;;;;;;;2.00;1.33;;;15.80;99.90;;;;;;7377124;19;20737;-73
2022/07/07 07:17:28;;;;;;;2.10;1.60;;;16.00;99.90;;;;;;7380960;19;20391;-71
2022/07/07 07:19:53;;;;;;;1.88;1.40;;;16.00;99.90;;;;;;7382326;19;20391;-72
2022/07/07 07:22:19;;;;;;;2.57;1.60;;;15.90;99.90;;;;;;7378608;19;20336;-73
2022/07/07 07:24:44;;;;;;;2.40;1.60;;;15.80;99.90;;;;;;7378076;19;20685;-75
2022/07/07 07:27:10;;;;;;;2.13;1.70;;;15.80;99.90;;;;;;7378686;19;20335;-73
2022/07/07 07:29:36;;;;;;;2.47;1.50;;;15.70;99.90;;;;;;7381861;19;20364;-76
2022/07/07 07:32:01;;;;;;;2.37;1.60;;;15.60;99.90;;;;;;7379120;19;20327;-74
2022/07/07 07:34:27;;;;;;;3.13;1.63;;;15.50;99.90;;;;;;7377424;19;20340;-72
2022/07/07 07:36:52;;;;;;;2.70;2.00;;;15.50;99.90;;;;;;7379141;19;21516;-72
2022/07/07 07:39:18;;;;;;;2.30;1.50;;;15.40;99.90;;;;;;7381152;19;20317;-72
2022/07/07 07:41:43;;;;;;;2.22;1.83;;;15.40;99.90;;;;;;7376914;19;20352;-73
2022/07/07 07:44:10;;;;;;;2.20;1.77;;;15.40;99.90;;;;;;7376490;19;20352;-74
2022/07/07 07:46:35;;;;;;;1.63;1.52;;;15.40;99.90;;;;;;7376320;19;20440;-72
2022/07/07 07:49:05;;;;;;;1.77;1.67;;;15.40;99.90;;;;;;7381655;19;20392;-73
2022/07/07 07:51:34;;;;;;;1.98;1.70;;;15.30;99.90;;;;;;7379225;19;20313;-73
2022/07/07 07:53:59;;;;;;;2.28;1.88;;;15.30;99.90;;;;;;7374344;19;20801;-72
2022/07/07 07:56:25;;;;;;;2.97;2.10;;;15.30;99.90;;;;;;7378577;19;20336;-73
2022/07/07 07:58:51;;;;;;;2.10;1.90;;;15.40;99.90;;;;;;7381947;19;20420;-74
2022/07/07 08:01:17;;;;;;;3.77;1.90;;;15.60;99.90;;;;;;7378553;19;20448;-72
2022/07/07 08:03:43;;;;;;;1.88;1.70;;;15.80;99.90;;;;;;7375945;19;20378;-73
2022/07/07 08:06:08;;;;;;;2.57;1.77;;;16.00;99.90;;;;;;7377245;19;20336;-72
2022/07/07 08:08:34;;;;;;;2.03;1.83;;;16.20;99.90;;;;;;7381235;19;20324;-73
2022/07/07 08:10:59;;;;;;;3.20;1.80;;;16.30;99.90;;;;;;7378113;19;20325;-72
2022/07/07 08:13:25;;;;;;;2.17;1.70;;;16.20;99.90;;;;;;7376345;19;20911;-74
2022/07/07 08:15:51;;;;;;;1.70;1.60;;;16.10;99.90;;;;;;7375695;19;20356;-72
2022/07/07 08:18:16;;;;;;;1.70;1.60;;;16.00;99.90;;;;;;7381224;19;20320;-71
2022/07/07 08:20:42;;;;;;;1.70;1.60;;;15.90;99.90;;;;;;7380817;19;20334;-77
2022/07/07 08:23:07;;;;;;;1.67;1.57;;;15.80;99.90;;;;;;7375727;19;20429;-72
2022/07/07 08:25:36;;;;;;;2.30;1.70;;;15.90;99.90;;;;;;7373702;19;20722;-71
2022/07/07 08:28:01;;;;;;;1.77;1.67;;;15.90;99.90;;;;;;7379737;19;20860;-72
2022/07/07 08:30:27;;;;;;;2.75;1.60;;;15.80;99.90;;;;;;7380118;19;20332;-71
2022/07/07 08:32:53;;;;;;;3.03;1.90;;;15.90;99.90;;;;;;7375892;19;20660;-73
2022/07/07 08:35:18;;;;;;;1.77;1.67;;;15.90;99.90;;;;;;7376764;19;20350;-71
2022/07/07 08:37:44;;;;;;;1.70;1.60;;;15.90;99.90;;;;;;7382432;19;20600;-72
2022/07/07 08:40:10;;;;;;;2.10;1.70;;;15.90;99.90;;;;;;7379115;19;20809;-72
2022/07/07 08:42:36;;;;;;;1.80;1.60;;;15.80;99.90;;;;;;7374499;19;20372;-76
2022/07/07 08:45:02;;;;;;;1.70;1.60;;;15.90;99.90;;;;;;7377617;19;20332;-72
2022/07/07 08:47:27;;;;;;;2.23;1.93;;;16.00;99.90;;;;;;7381583;19;20321;-72
2022/07/07 08:49:53;;;;;;;2.00;1.80;;;16.00;99.90;;;;;;7379021;19;20325;-75
2022/07/07 08:52:19;;;;;;;1.90;1.80;;;16.10;99.90;;;;;;7375601;19;20324;-75
2022/07/07 08:54:45;;;;;;;2.40;1.60;;;16.20;99.90;;;;;;7377899;19;20336;-72
2022/07/07 08:57:11;;;;;;;2.10;1.90;;;16.20;99.90;;;;;;7374041;19;20325;-75
2022/07/07 08:59:36;;;;;;;2.13;1.93;;;16.30;99.90;;;;;;7378040;19;20329;-73
2022/07/07 09:02:02;;;;;;;3.33;2.10;;;16.20;99.90;;;;;;7378658;19;20325;-73
2022/07/07 09:04:28;;;;;;;2.30;2.10;;;16.10;99.90;;;;;;7374842;19;20440;-72
2022/07/07 09:06:56;;;;;;;3.90;2.00;;;16.10;99.90;;;;;;7375722;19;20387;-78
2022/07/07 09:09:46;;;;;;;2.20;2.00;;;16.20;99.90;;;;;;7379748;19;20729;-73
2022/07/07 09:12:13;;;;;;;2.38;2.17;;;16.10;99.90;;;;;;7272890;19;2004468;-72
2022/07/07 09:14:44;;;;;;;2.10;2.00;;;16.00;99.90;;;;;;7373547;19;20357;-72
2022/07/07 09:17:19;;;;;;;2.03;1.92;;;16.00;99.90;;;;;;7370815;19;20344;-72
2022/07/07 09:19:44;;;;;;;2.60;2.40;;;16.00;99.90;;;;;;7371555;19;20392;-72
2022/07/07 09:22:11;;;;;;;3.70;2.22;;;16.10;99.90;;;;;;7371078;19;20413;-72
2022/07/07 09:24:55;;;;;;;2.38;2.17;;;16.10;99.90;;;;;;7373078;19;20336;-73
2022/07/07 09:27:21;;;;;;;2.33;2.13;;;16.10;99.90;;;;;;7376522;19;20384;-72
2022/07/07 09:29:47;;;;;;;2.42;2.22;;;16.20;99.90;;;;;;7375776;19;20345;-71
2022/07/07 09:32:12;;;;;;;2.30;2.10;;;16.20;99.90;;;;;;7368567;19;20374;-72
2022/07/07 09:34:38;;;;;;;2.30;2.10;;;16.20;99.90;;;;;;7375155;19;21187;-72
2022/07/07 09:39:52;;;;;;;2.22;2.03;;;16.30;99.90;;;;;;7379549;19;20309;-74
2022/07/07 09:42:24;;;;;;;2.23;2.03;;;16.40;99.90;;;;;;7373415;19;20349;-75
2022/07/07 09:45:03;;;;;;;2.60;2.40;;;16.40;99.90;;;;;;7374025;19;20304;-73
2022/07/07 09:47:29;;;;;;;2.55;2.35;;;16.30;99.90;;;;;;7273104;19;2007306;-74
2022/07/07 09:50:06;;;;;;;2.78;2.25;;;16.30;99.90;;;;;;7376801;19;20899;-73
2022/07/07 09:52:33;;;;;;;2.80;2.60;;;16.30;99.90;;;;;;7270900;19;2004499;-78
2022/07/07 09:54:59;;;;;;;2.50;2.33;;;16.30;99.90;;;;;;7374486;19;20875;-74
2022/07/07 09:57:25;;;;;;;2.65;2.45;;;16.30;99.90;;;;;;7378141;19;20312;-80
2022/07/07 09:59:50;;;;;;;2.77;2.40;;;16.30;99.90;;;;;;7379078;19;20305;-75
2022/07/07 10:02:27;;;;;;;3.38;2.42;;;16.30;99.90;;;;;;7379507;19;20457;-76
2022/07/07 10:04:55;;;;;;;2.42;2.22;;;16.40;99.90;;;;;;7374940;19;20328;-74
2022/07/07 10:07:25;;;;;;;2.55;2.38;;;16.40;99.90;;;;;;7379591;19;20301;-75
2022/07/07 10:09:54;;;;;;;2.97;2.70;;;16.40;99.90;;;;;;7379201;19;20328;-75
2022/07/07 10:12:21;;;;;;;2.83;2.60;;;16.40;99.90;;;;;;7380159;19;20649;-73
2022/07/07 10:14:48;;;;;;;2.72;2.53;;;16.50;99.90;;;;;;7375792;19;20329;-74
2022/07/07 10:17:16;;;;;;;3.13;2.83;;;16.50;99.90;;;;;;7376978;19;20348;-75
2022/07/07 10:19:42;;;;;;;3.20;2.90;;;16.50;99.90;;;;;;7379502;19;20323;-76
2022/07/07 10:22:08;;;;;;;2.75;2.55;;;16.40;99.90;;;;;;7377978;19;20312;-80
2022/07/07 10:24:35;;;;;;;3.28;2.97;;;16.50;99.90;;;;;;7379759;19;20417;-74
2022/07/07 10:27:02;;;;;;;2.90;2.70;;;16.30;99.90;;;;;;7372651;19;20335;-77
2022/07/07 10:29:38;;;;;;;3.00;2.65;;;16.40;99.90;;;;;;7379496;19;20341;-79
2022/07/07 10:32:04;;;;;;;3.33;2.78;;;16.40;99.90;;;;;;7275741;19;2004480;-79
2022/07/07 10:34:33;;;;;;;3.45;3.15;;;16.50;99.90;;;;;;7376761;19;20336;-74
2022/07/07 10:37:00;;;;;;;3.23;2.93;;;16.50;99.90;;;;;;7373383;19;20376;-76
2022/07/07 10:39:27;;;;;;;2.95;2.70;;;16.50;99.90;;;;;;7379088;19;20312;-77
2022/07/07 10:42:04;;;;;;;3.03;2.72;;;16.60;99.90;;;;;;7372962;19;20324;-75
2022/07/07 10:44:30;;;;;;;3.10;2.80;;;16.50;99.90;;;;;;7375192;19;20347;-75
2022/07/07 10:47:25;;;;;;;2.90;2.70;;;16.70;99.90;;;;;;7368666;19;20817;-77
2022/07/07 10:49:51;;;;;;;3.28;2.97;;;16.90;99.90;;;;;;7275896;19;2016845;-74
2022/07/07 10:52:18;;;;;;;3.03;2.83;;;17.10;99.90;;;;;;7374805;19;20328;-74
2022/07/07 10:54:47;;;;;;;2.83;2.63;;;17.10;99.90;;;;;;7375642;19;20352;-77
2022/07/07 10:57:13;;;;;;;3.50;2.60;;;17.20;99.90;;;;;;7374862;19;20313;-74
2022/07/07 11:00:00;;;;;;;3.03;2.83;;;17.20;99.90;;;;;;7373220;19;20336;-75
2022/07/07 11:02:39;;;;;;;2.60;2.40;;;17.00;99.90;;;;;;7373240;19;20927;-80
2022/07/07 11:05:14;;;;;;;2.70;2.20;;;17.10;99.90;;;;;;7270668;19;2004540;-79
2022/07/07 11:07:43;;;;;;;2.40;2.30;;;17.00;99.90;;;;;;7367673;19;20367;-80
2022/07/07 11:10:10;;;;;;;2.38;2.20;;;17.10;99.90;;;;;;7373350;19;20336;-77
2022/07/07 11:12:51;;;;;;;2.60;2.40;;;17.20;99.90;;;;;;7371323;19;20384;-77
2022/07/07 11:15:22;;;;;;;2.30;2.10;;;17.00;99.90;;;;;;7368231;19;20373;-76
2022/07/07 11:17:56;;;;;;;2.63;2.20;;;17.00;99.90;;;;;;7374705;19;20353;-76
2022/07/07 11:20:23;;;;;;;2.45;2.25;;;17.10;99.90;;;;;;7372218;19;20320;-77
2022/07/07 11:22:51;;;;;;;3.03;2.20;;;17.10;99.90;;;;;;7376064;19;20348;-75
2022/07/07 11:25:19;;;;;;;2.40;1.90;;;17.20;99.90;;;;;;7368128;19;20362;-75
2022/07/07 11:27:49;;;;;;;2.20;2.08;;;17.30;99.90;;;;;;7370080;19;20348;-79
2022/07/07 11:30:15;;;;;;;1.90;1.80;;;17.40;99.90;;;;;;7370347;19;20355;-78
2022/07/07 11:32:41;;;;;;;2.05;1.80;;;17.50;99.90;;;;;;7371067;19;20332;-78
2022/07/07 11:35:08;;;;;;;1.90;1.80;;;17.50;99.90;;;;;;7365893;19;20373;-75
2022/07/07 11:37:37;;;;;;;2.28;2.00;;;17.60;99.90;;;;;;7372112;19;20329;-75
2022/07/07 11:40:03;;;;;;;1.90;1.80;;;17.80;99.90;;;;;;7369786;19;20316;-77
2022/07/07 11:42:34;;;;;;;1.95;1.75;;;17.80;99.90;;;;;;7368741;19;20326;-76
2022/07/07 11:44:59;;;;;;;1.73;1.60;;;17.90;99.90;;;;;;7366227;19;21076;-81
2022/07/07 11:47:25;;;;;;;1.77;1.67;;;17.90;99.90;;;;;;7369060;19;20930;-77
2022/07/07 11:49:53;;;;;;;1.95;1.75;;;17.90;99.90;;;;;;7371325;19;20317;-76
2022/07/07 11:52:21;;;;;;;1.85;1.75;;;17.80;99.90;;;;;;7373643;19;20383;-81
2022/07/07 11:54:48;;;;;;;1.52;1.42;;;17.80;99.90;;;;;;7371809;19;21609;-79
2022/07/07 11:57:29;;;;;;;1.50;1.40;;;17.80;99.90;;;;;;7373599;19;20360;-79
2022/07/07 12:00:09;;;;;;;1.70;1.60;;;17.80;99.90;;;;;;7377884;19;21152;-78
2022/07/07 12:02:36;;;;;;;1.70;1.60;;;17.90;99.90;;;;;;7278631;19;2004852;-77
2022/07/07 12:05:02;;;;;;;1.40;1.37;;;17.80;99.90;;;;;;7377923;19;20352;-75
2022/07/07 12:07:28;;;;;;;1.50;1.40;;;17.80;99.90;;;;;;7381777;19;20367;-79
2022/07/07 12:09:53;;;;;;;1.60;1.50;;;17.80;99.90;;;;;;7384200;19;20392;-78
2022/07/07 12:12:19;;;;;;;1.67;1.57;;;17.80;99.90;;;;;;7380647;19;20854;-74
2022/07/07 12:14:45;;;;;;;1.80;1.70;;;17.60;99.90;;;;;;7378435;19;20443;-75
2022/07/07 12:17:10;;;;;;;1.55;1.45;;;17.60;99.90;;;;;;7381037;19;20312;-77
2022/07/07 12:19:46;;;;;;;1.70;1.60;;;17.80;99.90;;;;;;7382245;19;20404;-77
2022/07/07 12:22:12;;;;;;;1.70;1.60;;;17.70;99.90;;;;;;7379607;19;20323;-76
2022/07/07 12:24:37;;;;;;;2.50;1.80;;;17.70;99.90;;;;;;7380440;19;20867;-75
2022/07/07 12:27:03;;;;;;;1.90;1.80;;;17.70;99.90;;;;;;7374918;19;20317;-76
2022/07/07 12:29:29;;;;;;;2.10;1.80;;;17.50;99.90;;;;;;7382568;19;20324;-77
2022/07/07 12:31:55;;;;;;;2.00;1.90;;;17.50;99.90;;;;;;7381212;19;21178;-75
2022/07/07 12:34:22;;;;;;;1.83;1.73;;;17.40;99.90;;;;;;7381055;19;20329;-74
2022/07/07 12:36:48;;;;;;;1.92;1.83;;;17.50;99.90;;;;;;7375625;19;20352;-77
2022/07/07 12:39:14;;;;;;;2.10;1.90;;;17.40;99.90;;;;;;7382126;19;20352;-75
2022/07/07 12:41:40;;;;;;;2.10;2.00;;;17.50;99.90;;;;;;7378417;19;20341;-75
2022/07/07 12:44:22;;;;;;;2.47;2.28;;;17.50;99.90;;;;;;7381634;19;20367;-73
2022/07/07 12:46:47;;;;;;;2.38;2.22;;;17.50;99.90;;;;;;7373876;19;21137;-77